Norfolk Island International Airport
YSNF : now visible

Airfield :











YOU CAN JOIN US ON...

 
LOGIN :

Register | Disclaimer

   EN    FR    IT 

 









Legend :    VFR   Marginal VFR   IFR   Intensive IFR   Very Intensive IFR
Visi :
Ceiling :
>= 8 km
>= 3000ft
5 to 8 km
1000 to 3000 ft
1500m to 5 km
500 to 1000 ft
800 to 1500m
200 to 500 ft
< 800m
< 200 ft
Symbols :   Thunderstorms  Fog  Heavy snow  Heavy precipitations  Wind > 20 kt






- Airport Elevation : 371 ft
- IATA code : NLK


YSNF - Norfolk Island International

CURRENT METAR :
  • 052342Z 26021G31KT 5000 FU VCSH FEW020 SCT029 18/12 Q1012

EXPIRED METARs :
  • 052330Z 26023G33KT 9999 VCSH FEW020 SCT029 18/12 Q1012
  • 052308Z 26019G29KT 9999 VCSH FEW020 SCT029 18/12 Q1012
  • 052230Z 25021G33KT 9999 VCSH FEW020 SCT030 17/11 Q1012
  • 052210Z AUTO 25020G30KT 9999 // SCT033 SCT039 17/12 Q1011
  • 052200Z 25022KT 9999 VCSH FEW020 SCT030 17/10 Q1011 RF00.0/001.6
  • 052147Z AUTO 25021G31KT 9999 // SCT031 SCT041 17/11 Q1011
  • 052130Z AUTO 25022KT 9999 // SCT029 17/11 Q1011 RF00.0/001.6
  • 052104Z AUTO 25020G30KT 9000 // SCT031 BKN035 OVC042 16/12 Q1011

TAF TAF YSNF
Valid from the 06 at 00:00 until the 07 at 00:00 UTC


052302Z 0600/0700 25022G32KT 9999 SCT030
FM060800 23015G25KT 9999 SCT025
FM061800 22012KT 9999 BKN025
NZZO FIR / Oceania



MET'MAP, your aeronautical weather chart ! - Copyright ORBIFLY December 2007 - Disclaimer

ORBIFLY MET'MAP TEAM :

Programming & Development : Alexandra Zaïnal
Concept & original design : Baudouin d'Aumeries
Assistance for programming : Marc-Olivier Méhu
Technical & hardware support : Manuel Goepfert

Contact : metmap@orbifly.com




SOURCES & CREDITS :

   NOAA       Earth
Advisory